Historyczne dane pomiarowe

Dodano dane terminowe – wersja testowa.

Dane z okresu 1951-2019

Wersja bazy: 1.34 [2019-03-16, lista zmian], aktualizacja planowana na 2019-04-15

Dane meteo z obszaru Polski uzyskane na podstawie danych udostępnionych przez Instytut Meteorologii i Gospodarki Wodnej – Państwowy Instytut Badawczy.

 

Wybierz Datę:    

       

TemperaturaWilgotnośćWiatrCiśnienieOpadyŚniegCzas trwania zjawisk
 Stacja t tx tn tng RH VA  wxwx mslp ppp RRR   cm mm wxwxwxwxwxwxwx
1994-08-14 14.7 19.3 11.7 9.7-- 5.7 2.7---- 0.4------------
1994-08-13 18.4 23.7 15.7 12.6-- 7.0 4.0---- 2.9------------
1994-08-12 19.0 25.5 15.6 13.8-- 7.7 1.0---- 0.5------------
1994-08-11 18.8 25.1 11.1 8.3-- 6.7 1.0---- 0.4------------
1994-08-10 19.2 25.3 16.0 13.6-- 5.7 1.0---- 0.0------------
1994-08-09 18.1 21.0 15.5 12.7-- 8.0 1.7---- 39.4------------
1994-08-08 19.3 25.7 16.5 13.4-- 6.3 2.0---- 2.1------------
1994-08-07 24.6 29.9 20.6 16.1-- 5.7 2.0---- 3.5------------
1994-08-06 25.3 33.9 15.6 12.2-- 1.7 0.7---- 0.0------------
1994-08-05 24.5 33.0 15.6 12.7-- 1.0 1.0---- 0.0------------
1994-08-04 22.7 30.7 16.6 13.6-- 2.3 0.7---- 0.0------------
1994-08-03 22.9 29.0 17.6 15.1-- 5.0 2.0---- 0.3------------
1994-08-02 24.8 33.3 19.6 18.0-- 3.7 0.7---- 0.1------------
1994-08-01 26.9 36.5 16.6 13.2-- 4.3 1.0---- 3.1------------
1994-07-31 26.5 34.5 16.5 13.6 49.3- 1.3 0.7---- 0.0------------
1994-07-30 27.2 36.5 16.0 12.8 44.5- 1.3 1.0---- 0.0------------
1994-07-29 26.2 36.0 14.8 11.7 48.3- 1.7 1.3---- 0.0------------
1994-07-28 26.1 35.0 14.7 11.7 47.3- 0.3 0.3---- 0.0------------
1994-07-27 24.9 34.4 12.8 10.2 50.8- 1.0 1.0---- 0.0------------
1994-07-26 24.5 33.5 13.3 10.4 53.0- 0.7 0.3---- 0.0------------
1994-07-25 23.9 32.5 12.5 9.7 51.8- 1.7 0.3---- 0.0------------
1994-07-24 22.9 31.0 11.6 8.8 55.3- 1.0 1.0---- 0.0------------
1994-07-23 21.8 29.1 11.5 8.9 60.5- 4.7 1.0---- 0.0------------
1994-07-22 20.0 27.1 10.2 6.5 64.5- 1.3 1.0---- 0.0------------
1994-07-21 20.2 28.6 8.6 5.9 58.5- 1.0 1.0---- 0.0------------
1994-07-20 17.7 24.7 9.1 5.4 64.8- 1.0 1.3---- 0.0------------
1994-07-19 18.3 23.5 12.7 9.3 61.3- 2.7 2.0---- 0.0------------
1994-07-18 19.0 25.1 15.7 12.2 81.5- 4.7 1.0---- 0.0------------
1994-07-17 22.9 28.4 19.0 15.8 63.3- 4.7 1.3---- 7.7------------
1994-07-16 24.0 31.7 13.2 9.9 56.3- 2.7 2.7---- 0.0------------
1994-07-15 24.8 30.5 16.0 12.3 53.5- 2.3 1.7---- 0.0------------
1994-07-14 25.1 31.4 17.8 14.2 59.5- 5.7 1.7---- 0.0------------
1994-07-13 24.4 31.5 13.6 10.1 54.8- 2.0 2.0---- 0.0------------
1994-07-12 23.4 30.4 14.6 5.1 61.0- 1.0 3.0---- 0.0------------
1994-07-11 21.3 28.2 14.5 8.5 67.0- 3.7 2.0---- 0.0------------
1994-07-10 18.9 26.0 12.9 9.4 74.0- 4.7 1.0---- 0.0------------
1994-07-09 13.8 16.0 12.7 11.0 97.3- 7.3 1.3---- 8.9------------
1994-07-08 16.3 23.1 12.4 8.1 78.8- 6.0 2.0---- 18.4------------
1994-07-07 20.1 28.2 9.7 5.6 57.3- 3.3 1.3---- 0.7------------
1994-07-06 19.5 26.5 9.6 5.7 56.8- 4.0 1.0---- 0.0------------
1994-07-05 19.8 26.4 11.3 6.7 56.8- 2.7 2.0---- 0.0------------
1994-07-04 20.2 27.4 8.6 4.5 58.3- 1.0 1.7---- 0.0------------
1994-07-03 18.8 26.6 7.6 3.7 56.3- 2.0 1.3---- 0.0------------
1994-07-02 17.3 24.5 7.6 3.2 64.8- 0.7 1.7---- 0.0------------
1994-07-01 18.3 24.3 9.1 5.0 64.5- 6.7 1.3---- 0.0------------
1994-06-30 22.5 27.6 18.1 14.6 71.0- 7.0 2.3---- 8.3------------
1994-06-29 24.5 32.0 14.6 10.3 62.0- 0.3 1.3---- 0.0------------
1994-06-28 23.1 29.4 15.2 11.5 62.8- 0.3 1.7---- 0.0------------
1994-06-27 24.9 31.4 16.2 11.5 60.5- 1.3 2.3---- 0.0------------
1994-06-26 21.5 30.6 8.6 3.8 56.8- 1.3 2.7---- 0.0------------
1994-06-25 15.9 23.7 4.2 0.2 63.5- 0.3 1.3---- 0.0------------
1994-06-24 14.9 19.8 9.1 4.5 56.8- 3.3 3.3---- 0.0------------
1994-06-23 17.2 22.4 14.6 11.0 50.0- 2.3 5.3---- 0.0------------
1994-06-22 17.5 25.1 8.5 3.7 72.0- 5.7 2.7---- 0.0------------
1994-06-21 15.2 21.5 4.4 0.4 67.0- 3.3 2.7---- 0.0------------
1994-06-20 16.7 19.6 15.3 12.8 62.8- 3.7 3.7---- 0.0------------
1994-06-19 15.3 19.6 12.1 10.2 82.8- 7.7 1.7---- 0.2------------
1994-06-18 13.0 19.3 3.0 -0.9 68.3- 7.0 2.0---- 2.3------------
1994-06-17 11.9 15.9 9.0 7.0 70.0- 5.3 3.0---- 2.2------------
1994-06-16 11.6 16.0 5.8 1.4 74.8- 7.3 3.0---- 2.0------------
212.9 ms

 

Źródłem pochodzenia danych jest Instytut Meteorologii i Gospodarki Wodnej – Państwowy Instytut Badawczy. Dane Instytutu Meteorologii i Gospodarki Wodnej – Państwowego Instytutu Badawczego zostały przetworzone.

Dane źródłowe można odnaleźć na stronie https://dane.imgw.pl